This is the latest recevied weather packets stored in our database for station/object Kisslegg. If no packets are shown the sender has not sent any weather packets the latest 1 day(s).
| Time | Temp. | Humidity | Pressure | Rain* | Wind** | Luminosity | Snow |
|---|---|---|---|---|---|---|---|
| 1777986130 | 16.67° C | 74% | 1006.6 hPa | 0 mm | 0 m/s | - | - |
| 1777984330 | 14.44° C | 81% | 1006.8 hPa | 0 mm | 0 m/s | - | - |
| 1777982530 | 13.89° C | 83% | 1006.8 hPa | 0 mm | 0 m/s | - | - |
| 1777980730 | 13.33° C | 84% | 1007.2 hPa | 0 mm | 0 m/s | - | - |
| 1777978931 | 13.89° C | 81% | 1007.4 hPa | 0 mm | 0 m/s | - | - |
| 1777977131 | 15° C | 80% | 1007 hPa | 0 mm | 0 m/s | - | - |
| 1777975332 | 15.56° C | 77% | 1006.9 hPa | 0 mm | 0 m/s | - | - |
| 1777973532 | 15.56° C | 75% | 1007.1 hPa | 0 mm | 0 m/s | - | - |
| 1777971732 | 16.11° C | 74% | 1007.2 hPa | 0 mm | 0 m/s | - | - |
| 1777969931 | 16.67° C | 73% | 1007.2 hPa | 0 mm | 0 m/s | - | - |
| 1777968130 | 15.56° C | 79% | 1007.5 hPa | 0 mm | 0 m/s | - | - |
| 1777966330 | 13.33° C | 86% | 1007.7 hPa | 0 mm | 0 m/s | - | - |
| 1777964532 | 12.22° C | 92% | 1007.9 hPa | 0 mm | 0 m/s | - | - |
| 1777962731 | 11.67° C | 95% | 1008.1 hPa | 0 mm | 0 m/s | - | - |
| 1777960932 | 10.56° C | 96% | 1008.3 hPa | 0 mm | 0 m/s | - | - |
| 1777959131 | 9.44° C | 95% | 1008.3 hPa | 0 mm | 0 m/s | - | - |
| 1777957331 | 9.44° C | 95% | 1008.1 hPa | 0 mm | 0 m/s | - | - |
| 1777955531 | 8.89° C | 95% | 1008.2 hPa | 0 mm | 0 m/s | - | - |
| 1777953731 | 8.33° C | 94% | 1008.5 hPa | 0 mm | 0 m/s | - | - |
| 1777951931 | 8.33° C | 94% | 1008.6 hPa | 0 mm | 0 m/s | - | - |
| 1777950133 | 8.33° C | 93% | 1008.8 hPa | 0 mm | 0 m/s | - | - |
| 1777948331 | 8.89° C | 93% | 1009 hPa | 0 mm | 0 m/s | - | - |
| 1777946531 | 8.89° C | 92% | 1009.2 hPa | 0 mm | 0 m/s | - | - |
* Rain since midnight (hover to see other rain measurements)
** Current wind speed in m/s (hover to see current wind gust speed)